Luodian, China
Current Conditions -  °F | °C
As of 5:00 PM on Saturday 25 Oct 2014 (Local Time) from ZUGY Reporting Station
Clear Clear  
Wind Chill: 75°   Ceiling: Unl
Heat Index: 75°   Visibility: 6mi
Dew Point: 59°   Wind: 11mph
Humidity: 57%   Direction: 190°S
Pressure: 30.03"   Gusts: NA
Location:  25.43°N, 106.77°E
Report Text: ZUGY 250900Z 19005MPS CAVOK 24/15 Q1017 NOSIG
Loading
Personal Weather Stations






























Interactive Weather Map
Tropical Storm Tracking
New forecast layout! Learn more

10-Day Weather Forecast

Advertisements
Track Severe Weather on mobile